sensor_id;sensor_type;location;lat;lon;timestamp;pressure;altitude;pressure_sealevel;temperature;humidity
18765;BME280;9511;54.242;12.448;2024-01-15T04:05:15;98371.06;;;1.39;92.14
18765;BME280;9511;54.242;12.448;2024-01-15T04:07:42;98370.31;;;1.44;91.35
18765;BME280;9511;54.242;12.448;2024-01-15T04:10:09;98367.72;;;1.46;90.98
18765;BME280;9511;54.242;12.448;2024-01-15T04:12:37;98380.91;;;1.52;90.60
18765;BME280;9511;54.242;12.448;2024-01-15T04:15:04;98363.47;;;1.49;90.37
18765;BME280;9511;54.242;12.448;2024-01-15T04:17:32;98380.75;;;1.46;90.36
18765;BME280;9511;54.242;12.448;2024-01-15T04:19:59;98375.56;;;1.47;90.08
18765;BME280;9511;54.242;12.448;2024-01-15T04:22:28;98361.69;;;1.48;89.57
18765;BME280;9511;54.242;12.448;2024-01-15T04:24:55;98380.81;;;1.49;89.29
18765;BME280;9511;54.242;12.448;2024-01-15T04:27:22;98370.47;;;1.52;88.82
18765;BME280;9511;54.242;12.448;2024-01-15T04:29:50;98372.13;;;1.48;88.79
18765;BME280;9511;54.242;12.448;2024-01-15T04:32:17;98365.03;;;1.43;88.78
18765;BME280;9511;54.242;12.448;2024-01-15T04:34:45;98352.81;;;1.39;88.61
18765;BME280;9511;54.242;12.448;2024-01-15T04:37:13;98360.63;;;1.39;88.35
18765;BME280;9511;54.242;12.448;2024-01-15T04:39:42;98379.50;;;1.28;88.71
18765;BME280;9511;54.242;12.448;2024-01-15T04:42:09;98365.72;;;1.32;88.62
18765;BME280;9511;54.242;12.448;2024-01-15T04:44:36;98370.84;;;1.29;88.45
18765;BME280;9511;54.242;12.448;2024-01-15T04:47:03;98361.25;;;1.28;88.26
18765;BME280;9511;54.242;12.448;2024-01-15T04:49:31;98377.75;;;1.27;88.71
18765;BME280;9511;54.242;12.448;2024-01-15T04:51:58;98354.41;;;1.32;87.72
18765;BME280;9511;54.242;12.448;2024-01-15T04:54:25;98363.00;;;1.29;87.94
18765;BME280;9511;54.242;12.448;2024-01-15T04:56:54;98363.03;;;1.31;88.33
18765;BME280;9511;54.242;12.448;2024-01-15T04:59:21;98376.03;;;1.29;88.45
18765;BME280;9511;54.242;12.448;2024-01-15T05:01:49;98383.00;;;1.30;88.76
18765;BME280;9511;54.242;12.448;2024-01-15T05:04:16;98386.41;;;1.26;88.82
18765;BME280;9511;54.242;12.448;2024-01-15T05:06:43;98381.28;;;1.31;86.78
18765;BME280;9511;54.242;12.448;2024-01-15T05:09:10;98389.09;;;1.31;85.48
18765;BME280;9511;54.242;12.448;2024-01-15T05:11:39;98383.00;;;1.30;84.91
18765;BME280;9511;54.242;12.448;2024-01-15T05:14:07;98398.72;;;1.33;85.20
18765;BME280;9511;54.242;12.448;2024-01-15T05:16:35;98388.28;;;1.33;84.23
18765;BME280;9511;54.242;12.448;2024-01-15T05:19:04;98382.22;;;1.33;83.83
18765;BME280;9511;54.242;12.448;2024-01-15T05:21:32;98393.47;;;1.32;84.12
18765;BME280;9511;54.242;12.448;2024-01-15T05:23:59;98403.91;;;1.32;84.52
18765;BME280;9511;54.242;12.448;2024-01-15T05:26:26;98398.63;;;1.30;85.18
18765;BME280;9511;54.242;12.448;2024-01-15T05:28:54;98385.66;;;1.32;85.70
18765;BME280;9511;54.242;12.448;2024-01-15T05:31:22;98362.25;;;1.33;86.14
18765;BME280;9511;54.242;12.448;2024-01-15T05:33:50;98385.56;;;1.29;86.24
18765;BME280;9511;54.242;12.448;2024-01-15T05:36:17;98412.59;;;1.32;86.02
18765;BME280;9511;54.242;12.448;2024-01-15T05:38:44;98406.63;;;1.38;85.76
18765;BME280;9511;54.242;12.448;2024-01-15T05:41:12;98397.00;;;1.36;85.55
18765;BME280;9511;54.242;12.448;2024-01-15T05:43:39;98397.84;;;1.33;85.56
18765;BME280;9511;54.242;12.448;2024-01-15T05:46:06;98395.25;;;1.35;86.00
18765;BME280;9511;54.242;12.448;2024-01-15T05:48:35;98408.19;;;1.31;85.61
18765;BME280;9511;54.242;12.448;2024-01-15T05:51:02;98407.25;;;1.28;85.08
18765;BME280;9511;54.242;12.448;2024-01-15T05:53:30;98406.28;;;1.23;85.03
18765;BME280;9511;54.242;12.448;2024-01-15T05:55:57;98427.81;;;1.16;83.57
18765;BME280;9511;54.242;12.448;2024-01-15T05:58:24;98414.47;;;1.03;83.51
18765;BME280;9511;54.242;12.448;2024-01-15T06:00:52;98415.28;;;1.01;84.03
18765;BME280;9511;54.242;12.448;2024-01-15T06:03:19;98417.94;;;1.39;84.96
18765;BME280;9511;54.242;12.448;2024-01-15T06:05:47;98419.28;;;1.60;84.72
18765;BME280;9511;54.242;12.448;2024-01-15T06:08:15;98408.13;;;1.66;83.94
18765;BME280;9511;54.242;12.448;2024-01-15T06:10:42;98425.69;;;1.73;84.48
18765;BME280;9511;54.242;12.448;2024-01-15T06:13:09;98424.72;;;1.70;83.96
18765;BME280;9511;54.242;12.448;2024-01-15T06:15:36;98414.19;;;1.65;83.88
18765;BME280;9511;54.242;12.448;2024-01-15T06:18:04;98417.84;;;1.73;83.71
18765;BME280;9511;54.242;12.448;2024-01-15T06:20:32;98418.91;;;1.83;83.33
18765;BME280;9511;54.242;12.448;2024-01-15T06:23:01;98422.00;;;1.65;82.11
18765;BME280;9511;54.242;12.448;2024-01-15T06:25:28;98424.59;;;1.65;81.86
18765;BME280;9511;54.242;12.448;2024-01-15T06:27:56;98427.03;;;1.56;80.91
18765;BME280;9511;54.242;12.448;2024-01-15T06:30:23;98412.50;;;1.67;80.65
18765;BME280;9511;54.242;12.448;2024-01-15T06:32:50;98423.94;;;1.36;79.79
18765;BME280;9511;54.242;12.448;2024-01-15T06:35:17;98441.91;;;1.25;80.28
18765;BME280;9511;54.242;12.448;2024-01-15T06:37:44;98434.94;;;1.24;81.03
18765;BME280;9511;54.242;12.448;2024-01-15T06:40:13;98440.16;;;1.24;81.33
18765;BME280;9511;54.242;12.448;2024-01-15T06:42:41;98445.16;;;1.15;81.81
18765;BME280;9511;54.242;12.448;2024-01-15T06:45:08;98470.94;;;1.06;82.40
18765;BME280;9511;54.242;12.448;2024-01-15T06:47:36;98457.81;;;1.03;83.74
18765;BME280;9511;54.242;12.448;2024-01-15T06:50:04;98463.38;;;0.82;85.57
18765;BME280;9511;54.242;12.448;2024-01-15T06:52:33;98475.28;;;0.74;86.80
18765;BME280;9511;54.242;12.448;2024-01-15T06:55:00;98463.63;;;0.60;87.92
18765;BME280;9511;54.242;12.448;2024-01-15T06:57:28;98481.88;;;0.61;87.51
18765;BME280;9511;54.242;12.448;2024-01-15T06:59:56;98484.25;;;0.52;85.29
18765;BME280;9511;54.242;12.448;2024-01-15T07:02:23;98479.78;;;0.48;83.31
18765;BME280;9511;54.242;12.448;2024-01-15T07:04:50;98479.69;;;0.45;81.14
18765;BME280;9511;54.242;12.448;2024-01-15T07:07:18;98487.41;;;0.42;80.09
18765;BME280;9511;54.242;12.448;2024-01-15T07:09:45;98517.81;;;0.44;80.45
18765;BME280;9511;54.242;12.448;2024-01-15T07:12:12;98508.19;;;0.40;79.22
18765;BME280;9511;54.242;12.448;2024-01-15T07:14:41;98523.00;;;0.43;79.22
18765;BME280;9511;54.242;12.448;2024-01-15T07:17:08;98522.00;;;0.39;79.84
18765;BME280;9511;54.242;12.448;2024-01-15T07:19:35;98525.47;;;0.40;79.53
18765;BME280;9511;54.242;12.448;2024-01-15T07:22:04;98522.00;;;0.39;78.15
18765;BME280;9511;54.242;12.448;2024-01-15T07:24:31;98543.69;;;0.40;78.20
18765;BME280;9511;54.242;12.448;2024-01-15T07:27:00;98541.16;;;0.41;78.05
18765;BME280;9511;54.242;12.448;2024-01-15T07:29:27;98539.31;;;0.39;78.07
18765;BME280;9511;54.242;12.448;2024-01-15T07:32:00;98536.72;;;0.39;78.12
18765;BME280;9511;54.242;12.448;2024-01-15T07:34:27;98533.34;;;0.41;78.97
18765;BME280;9511;54.242;12.448;2024-01-15T07:36:54;98540.97;;;0.35;79.20
18765;BME280;9511;54.242;12.448;2024-01-15T07:39:22;98546.88;;;0.30;78.82
18765;BME280;9511;54.242;12.448;2024-01-15T07:41:51;98558.94;;;0.28;79.10
18765;BME280;9511;54.242;12.448;2024-01-15T07:44:18;98564.91;;;0.23;79.28
18765;BME280;9511;54.242;12.448;2024-01-15T07:46:46;98555.31;;;0.22;79.21
18765;BME280;9511;54.242;12.448;2024-01-15T07:49:15;98562.28;;;0.23;79.42
18765;BME280;9511;54.242;12.448;2024-01-15T07:51:42;98569.25;;;0.24;79.83
18765;BME280;9511;54.242;12.448;2024-01-15T07:54:10;98585.72;;;0.25;79.96
18765;BME280;9511;54.242;12.448;2024-01-15T07:56:53;98591.81;;;0.25;81.13
18765;BME280;9511;54.242;12.448;2024-01-15T07:59:21;98591.81;;;0.25;80.36
18765;BME280;9511;54.242;12.448;2024-01-15T08:01:48;98581.47;;;0.29;80.00
18765;BME280;9511;54.242;12.448;2024-01-15T08:04:17;98588.34;;;0.25;80.82
18765;BME280;9511;54.242;12.448;2024-01-15T08:06:44;98590.13;;;0.28;81.08
18765;BME280;9511;54.242;12.448;2024-01-15T08:09:12;98599.59;;;0.25;80.81
18765;BME280;9511;54.242;12.448;2024-01-15T08:11:39;98610.78;;;0.23;80.81
18765;BME280;9511;54.242;12.448;2024-01-15T08:14:08;98607.31;;;0.22;80.98
18765;BME280;9511;54.242;12.448;2024-01-15T08:16:35;98605.47;;;0.18;80.59
18765;BME280;9511;54.242;12.448;2024-01-15T08:19:03;98608.78;;;0.14;80.26
18765;BME280;9511;54.242;12.448;2024-01-15T08:21:32;98626.06;;;0.12;79.95
18765;BME280;9511;54.242;12.448;2024-01-15T08:24:01;98610.34;;;0.09;79.22
18765;BME280;9511;54.242;12.448;2024-01-15T08:26:29;98619.31;;;0.17;79.78
18765;BME280;9511;54.242;12.448;2024-01-15T08:28:56;98631.34;;;0.15;80.04
18765;BME280;9511;54.242;12.448;2024-01-15T08:31:24;98625.31;;;0.16;80.32
18765;BME280;9511;54.242;12.448;2024-01-15T08:33:51;98627.81;;;0.13;80.40
18765;BME280;9511;54.242;12.448;2024-01-15T08:36:19;98619.88;;;0.09;79.76
18765;BME280;9511;54.242;12.448;2024-01-15T08:38:48;98641.47;;;0.06;79.00
18765;BME280;9511;54.242;12.448;2024-01-15T08:41:15;98642.34;;;0.07;79.88
18765;BME280;9511;54.242;12.448;2024-01-15T08:43:42;98655.34;;;0.07;80.19
18765;BME280;9511;54.242;12.448;2024-01-15T08:46:09;98657.94;;;0.07;81.10
18765;BME280;9511;54.242;12.448;2024-01-15T08:48:37;98662.75;;;-0.06;80.60
18765;BME280;9511;54.242;12.448;2024-01-15T08:51:05;98661.94;;;-0.03;80.86
18765;BME280;9511;54.242;12.448;2024-01-15T08:53:34;98664.53;;;-0.03;80.27
18765;BME280;9511;54.242;12.448;2024-01-15T08:56:03;98664.53;;;-0.03;80.77
18765;BME280;9511;54.242;12.448;2024-01-15T08:58:30;98664.59;;;-0.02;81.02
18765;BME280;9511;54.242;12.448;2024-01-15T09:00:57;98667.03;;;-0.06;80.73
18765;BME280;9511;54.242;12.448;2024-01-15T09:03:24;98664.44;;;-0.06;80.92
18765;BME280;9511;54.242;12.448;2024-01-15T09:05:52;98679.97;;;-0.08;81.00
18765;BME280;9511;54.242;12.448;2024-01-15T09:08:20;98684.13;;;-0.13;81.10
18765;BME280;9511;54.242;12.448;2024-01-15T09:10:48;98691.00;;;-0.15;81.04
18765;BME280;9511;54.242;12.448;2024-01-15T09:13:16;98694.59;;;-0.11;82.20
18765;BME280;9511;54.242;12.448;2024-01-15T09:15:44;98697.81;;;-0.18;81.51
18765;BME280;9511;54.242;12.448;2024-01-15T09:18:11;98692.41;;;-0.24;80.11
18765;BME280;9511;54.242;12.448;2024-01-15T09:20:38;98688.16;;;-0.22;79.73
18765;BME280;9511;54.242;12.448;2024-01-15T09:23:06;98691.69;;;-0.20;79.26
18765;BME280;9511;54.242;12.448;2024-01-15T09:25:33;98703.00;;;-0.18;79.58
18765;BME280;9511;54.242;12.448;2024-01-15T09:28:01;98709.88;;;-0.20;79.28
18765;BME280;9511;54.242;12.448;2024-01-15T09:30:30;98729.66;;;-0.24;78.87
18765;BME280;9511;54.242;12.448;2024-01-15T09:32:57;98722.75;;;-0.23;79.64
18765;BME280;9511;54.242;12.448;2024-01-15T09:35:24;98739.78;;;-0.32;80.88
18765;BME280;9511;54.242;12.448;2024-01-15T09:37:51;98743.16;;;-0.34;81.05
18765;BME280;9511;54.242;12.448;2024-01-15T09:40:20;98727.28;;;-0.42;81.74
18765;BME280;9511;54.242;12.448;2024-01-15T09:42:48;98749.03;;;-0.40;80.46
18765;BME280;9511;54.242;12.448;2024-01-15T09:45:16;98749.03;;;-0.40;80.34
18765;BME280;9511;54.242;12.448;2024-01-15T09:47:45;98749.84;;;-0.41;79.31
18765;BME280;9511;54.242;12.448;2024-01-15T09:50:13;98767.22;;;-0.40;79.61
18765;BME280;9511;54.242;12.448;2024-01-15T09:52:40;98760.84;;;-0.48;79.57
18765;BME280;9511;54.242;12.448;2024-01-15T09:55:09;98778.78;;;-0.54;80.16
18765;BME280;9511;54.242;12.448;2024-01-15T09:57:38;98771.72;;;-0.58;79.97
18765;BME280;9511;54.242;12.448;2024-01-15T10:00:07;98786.50;;;-0.57;80.18
18765;BME280;9511;54.242;12.448;2024-01-15T10:02:36;98773.38;;;-0.60;79.79
18765;BME280;9511;54.242;12.448;2024-01-15T10:05:05;98773.50;;;-0.57;79.70
18765;BME280;9511;54.242;12.448;2024-01-15T10:07:35;98781.28;;;-0.57;79.72
18765;BME280;9511;54.242;12.448;2024-01-15T10:10:03;98789.09;;;-0.57;79.01
18765;BME280;9511;54.242;12.448;2024-01-15T10:12:30;98784.91;;;-0.52;80.01
18765;BME280;9511;54.242;12.448;2024-01-15T10:14:58;98800.28;;;-0.58;78.81
18765;BME280;9511;54.242;12.448;2024-01-15T10:17:25;98807.25;;;-0.57;79.46
18765;BME280;9511;54.242;12.448;2024-01-15T10:19:53;98795.81;;;-0.62;79.71
18765;BME280;9511;54.242;12.448;2024-01-15T10:22:22;98778.56;;;-0.60;79.76
18765;BME280;9511;54.242;12.448;2024-01-15T10:24:51;98801.16;;;-0.58;80.78
18765;BME280;9511;54.242;12.448;2024-01-15T10:27:18;98813.44;;;-0.54;81.39
18765;BME280;9511;54.242;12.448;2024-01-15T10:29:46;98807.34;;;-0.54;81.33
18765;BME280;9511;54.242;12.448;2024-01-15T10:32:13;98842.66;;;-0.59;80.93
18765;BME280;9511;54.242;12.448;2024-01-15T10:34:41;98822.72;;;-0.60;80.60
18765;BME280;9511;54.242;12.448;2024-01-15T10:37:09;98822.22;;;-0.50;81.53
18765;BME280;9511;54.242;12.448;2024-01-15T10:39:37;98839.41;;;-0.54;82.16
18765;BME280;9511;54.242;12.448;2024-01-15T10:42:05;98866.91;;;-0.59;80.92
18765;BME280;9511;54.242;12.448;2024-01-15T10:44:33;98826.25;;;-0.58;80.86
18765;BME280;9511;54.242;12.448;2024-01-15T10:47:00;98821.19;;;-0.55;80.70
18765;BME280;9511;54.242;12.448;2024-01-15T10:49:28;98842.81;;;-0.55;81.04
18765;BME280;9511;54.242;12.448;2024-01-15T10:51:56;98836.63;;;-0.58;81.30
18765;BME280;9511;54.242;12.448;2024-01-15T10:54:24;98882.56;;;-0.57;81.08
18765;BME280;9511;54.242;12.448;2024-01-15T10:56:55;98847.00;;;-0.58;81.73
18765;BME280;9511;54.242;12.448;2024-01-15T10:59:23;98868.16;;;-0.49;81.83
18765;BME280;9511;54.242;12.448;2024-01-15T11:01:51;98861.94;;;-0.52;81.64
18765;BME280;9511;54.242;12.448;2024-01-15T11:04:20;98874.34;;;-0.45;82.21
18765;BME280;9511;54.242;12.448;2024-01-15T11:06:50;98866.25;;;-0.53;81.90
18765;BME280;9511;54.242;12.448;2024-01-15T11:09:17;98874.78;;;-0.57;81.37
18765;BME280;9511;54.242;12.448;2024-01-15T11:11:46;98887.03;;;-0.53;81.73
18765;BME280;9511;54.242;12.448;2024-01-15T11:14:38;98886.94;;;-0.56;81.90
18765;BME280;9511;54.242;12.448;2024-01-15T11:17:05;98899.19;;;-0.52;81.80
18765;BME280;9511;54.242;12.448;2024-01-15T11:19:36;98888.09;;;-0.48;81.56
18765;BME280;9511;54.242;12.448;2024-01-15T11:22:08;98896.84;;;-0.46;81.19
18765;BME280;9511;54.242;12.448;2024-01-15T11:24:36;98892.34;;;-0.50;81.24
18765;BME280;9511;54.242;12.448;2024-01-15T11:27:05;98881.09;;;-0.50;81.36
18765;BME280;9511;54.242;12.448;2024-01-15T11:29:33;98900.97;;;-0.51;81.82
18765;BME280;9511;54.242;12.448;2024-01-15T11:32:06;98902.97;;;-0.44;81.99
18765;BME280;9511;54.242;12.448;2024-01-15T11:34:53;98897.88;;;-0.41;82.05
18765;BME280;9511;54.242;12.448;2024-01-15T11:37:20;98897.78;;;-0.44;80.95
18765;BME280;9511;54.242;12.448;2024-01-15T11:39:51;98899.19;;;-0.52;80.08
18765;BME280;9511;54.242;12.448;2024-01-15T11:42:19;98899.03;;;-0.57;80.44
18765;BME280;9511;54.242;12.448;2024-01-15T11:44:47;98904.03;;;-0.61;80.97
18765;BME280;9511;54.242;12.448;2024-01-15T11:47:33;98917.00;;;-0.61;81.83
18765;BME280;9511;54.242;12.448;2024-01-15T11:50:07;98920.69;;;-0.56;82.37
18765;BME280;9511;54.242;12.448;2024-01-15T11:52:37;98919.84;;;-0.55;82.79
18765;BME280;9511;54.242;12.448;2024-01-15T11:55:11;98937.19;;;-0.54;83.11
18765;BME280;9511;54.242;12.448;2024-01-15T11:57:42;98934.78;;;-0.49;83.37
18765;BME280;9511;54.242;12.448;2024-01-15T12:00:13;98938.31;;;-0.47;83.20
18765;BME280;9511;54.242;12.448;2024-01-15T12:02:43;98941.38;;;-0.58;83.47
18765;BME280;9511;54.242;12.448;2024-01-15T12:05:10;98947.09;;;-0.66;82.38
18765;BME280;9511;54.242;12.448;2024-01-15T12:07:39;98944.44;;;-0.68;80.84
18765;BME280;9511;54.242;12.448;2024-01-15T12:10:09;98941.78;;;-0.69;80.00
18765;BME280;9511;54.242;12.448;2024-01-15T12:12:47;98940.16;;;-0.67;79.19
18765;BME280;9511;54.242;12.448;2024-01-15T12:15:19;98950.00;;;-0.59;79.30
18765;BME280;9511;54.242;12.448;2024-01-15T12:17:48;98943.81;;;-0.62;78.83
18765;BME280;9511;54.242;12.448;2024-01-15T12:20:17;98965.47;;;-0.62;78.99
18765;BME280;9511;54.242;12.448;2024-01-15T12:22:46;98978.13;;;-0.69;78.51
18765;BME280;9511;54.242;12.448;2024-01-15T12:25:13;98977.19;;;-0.71;78.04
18765;BME280;9511;54.242;12.448;2024-01-15T12:27:40;98978.00;;;-0.72;77.53
18765;BME280;9511;54.242;12.448;2024-01-15T12:30:11;98986.63;;;-0.73;77.70
18765;BME280;9511;54.242;12.448;2024-01-15T12:32:39;99002.56;;;-0.64;78.42
18765;BME280;9511;54.242;12.448;2024-01-15T12:35:09;98991.34;;;-0.63;78.06
18765;BME280;9511;54.242;12.448;2024-01-15T12:37:37;99003.59;;;-0.61;78.50
18765;BME280;9511;54.242;12.448;2024-01-15T12:40:05;98986.16;;;-0.63;78.40
18765;BME280;9511;54.242;12.448;2024-01-15T12:42:33;99001.81;;;-0.62;77.52
18765;BME280;9511;54.242;12.448;2024-01-15T12:45:01;98985.09;;;-0.68;77.34
18765;BME280;9511;54.242;12.448;2024-01-15T12:47:30;98997.22;;;-0.69;77.26
18765;BME280;9511;54.242;12.448;2024-01-15T12:49:58;98994.78;;;-0.64;77.49
18765;BME280;9511;54.242;12.448;2024-01-15T12:52:28;98998.44;;;-0.59;77.99
18765;BME280;9511;54.242;12.448;2024-01-15T12:54:55;99005.28;;;-0.61;77.21
18765;BME280;9511;54.242;12.448;2024-01-15T12:57:23;98997.25;;;-0.67;77.18
18765;BME280;9511;54.242;12.448;2024-01-15T12:59:50;99009.16;;;-0.72;77.86
18765;BME280;9511;54.242;12.448;2024-01-15T13:02:18;99019.53;;;-0.72;77.31
18765;BME280;9511;54.242;12.448;2024-01-15T13:04:46;99029.03;;;-0.73;76.70
18765;BME280;9511;54.242;12.448;2024-01-15T13:07:13;99026.41;;;-0.74;77.06
18765;BME280;9511;54.242;12.448;2024-01-15T13:09:42;99027.34;;;-0.72;76.81
18765;BME280;9511;54.242;12.448;2024-01-15T13:12:09;99033.22;;;-0.76;75.83
18765;BME280;9511;54.242;12.448;2024-01-15T13:14:37;99039.09;;;-0.81;76.22
18765;BME280;9511;54.242;12.448;2024-01-15T13:17:04;99055.94;;;-0.92;75.74
18765;BME280;9511;54.242;12.448;2024-01-15T13:19:32;99045.41;;;-0.95;75.60
18765;BME280;9511;54.242;12.448;2024-01-15T13:21:59;99049.94;;;-0.91;76.10
18765;BME280;9511;54.242;12.448;2024-01-15T13:24:27;99058.81;;;-0.86;75.64
18765;BME280;9511;54.242;12.448;2024-01-15T13:26:56;99068.81;;;-0.74;76.15
18765;BME280;9511;54.242;12.448;2024-01-15T13:29:23;99072.56;;;-0.87;75.81
18765;BME280;9511;54.242;12.448;2024-01-15T13:31:50;99072.47;;;-0.90;76.10
18765;BME280;9511;54.242;12.448;2024-01-15T13:34:19;99071.78;;;-0.86;76.64
18765;BME280;9511;54.242;12.448;2024-01-15T13:36:46;99072.56;;;-0.87;76.47
18765;BME280;9511;54.242;12.448;2024-01-15T13:39:13;99080.38;;;-0.87;76.73
18765;BME280;9511;54.242;12.448;2024-01-15T13:41:46;99088.25;;;-0.85;78.32
18765;BME280;9511;54.242;12.448;2024-01-15T13:44:14;99078.66;;;-0.86;77.67
18765;BME280;9511;54.242;12.448;2024-01-15T13:46:42;99086.38;;;-0.88;78.57
18765;BME280;9511;54.242;12.448;2024-01-15T13:49:09;99101.75;;;-0.92;78.95
18765;BME280;9511;54.242;12.448;2024-01-15T13:51:37;99096.13;;;-1.03;79.05
18765;BME280;9511;54.242;12.448;2024-01-15T13:54:04;99112.41;;;-1.05;78.40
18765;BME280;9511;54.242;12.448;2024-01-15T13:56:31;99120.25;;;-1.04;79.30
18765;BME280;9511;54.242;12.448;2024-01-15T13:59:01;99121.91;;;-1.06;79.07
18765;BME280;9511;54.242;12.448;2024-01-15T14:01:31;99119.16;;;-1.09;80.21
18765;BME280;9511;54.242;12.448;2024-01-15T14:03:59;99138.72;;;-1.17;79.24
18765;BME280;9511;54.242;12.448;2024-01-15T14:06:26;99128.81;;;-1.26;78.64
18765;BME280;9511;54.242;12.448;2024-01-15T14:08:53;99136.66;;;-1.24;78.80
18765;BME280;9511;54.242;12.448;2024-01-15T14:11:21;99133.25;;;-1.23;78.94
18765;BME280;9511;54.242;12.448;2024-01-15T14:13:49;99140.97;;;-1.25;78.99
18765;BME280;9511;54.242;12.448;2024-01-15T14:16:16;99142.69;;;-1.25;79.06
18765;BME280;9511;54.242;12.448;2024-01-15T14:18:45;99157.41;;;-1.24;79.13
18765;BME280;9511;54.242;12.448;2024-01-15T14:21:13;99159.78;;;-1.29;78.57
18765;BME280;9511;54.242;12.448;2024-01-15T14:23:41;99158.75;;;-1.33;78.29
18765;BME280;9511;54.242;12.448;2024-01-15T14:26:09;99150.19;;;-1.31;78.41
18765;BME280;9511;54.242;12.448;2024-01-15T14:28:36;99173.53;;;-1.31;78.11
18765;BME280;9511;54.242;12.448;2024-01-15T14:31:05;99172.53;;;-1.34;77.96
18765;BME280;9511;54.242;12.448;2024-01-15T14:33:32;99171.59;;;-1.36;78.83
18765;BME280;9511;54.242;12.448;2024-01-15T14:36:01;99185.88;;;-1.26;79.38
18765;BME280;9511;54.242;12.448;2024-01-15T14:38:28;99179.78;;;-1.26;79.37
18765;BME280;9511;54.242;12.448;2024-01-15T14:40:55;99182.38;;;-1.26;79.87
18765;BME280;9511;54.242;12.448;2024-01-15T14:43:23;99183.47;;;-1.21;79.98
18765;BME280;9511;54.242;12.448;2024-01-15T14:45:50;99194.34;;;-1.30;79.70
18765;BME280;9511;54.242;12.448;2024-01-15T14:48:17;99193.44;;;-1.30;79.41
18765;BME280;9511;54.242;12.448;2024-01-15T14:50:45;99189.00;;;-1.33;79.13
18765;BME280;9511;54.242;12.448;2024-01-15T14:53:14;99194.88;;;-1.37;78.66
18765;BME280;9511;54.242;12.448;2024-01-15T14:55:41;99193.50;;;-1.29;79.31
18765;BME280;9511;54.242;12.448;2024-01-15T14:58:08;99205.44;;;-1.33;79.93
18765;BME280;9511;54.242;12.448;2024-01-15T15:00:35;99201.28;;;-1.29;79.44
18765;BME280;9511;54.242;12.448;2024-01-15T15:03:03;99202.66;;;-1.37;79.42
18765;BME280;9511;54.242;12.448;2024-01-15T15:05:30;99222.81;;;-1.31;80.40
18765;BME280;9511;54.242;12.448;2024-01-15T15:07:58;99213.09;;;-1.36;80.47
18765;BME280;9511;54.242;12.448;2024-01-15T15:10:26;99227.81;;;-1.35;80.37
18765;BME280;9511;54.242;12.448;2024-01-15T15:12:54;99228.00;;;-1.31;81.19
18765;BME280;9511;54.242;12.448;2024-01-15T15:15:21;99218.50;;;-1.31;81.76
18765;BME280;9511;54.242;12.448;2024-01-15T15:17:49;99225.53;;;-1.28;82.17
18765;BME280;9511;54.242;12.448;2024-01-15T15:20:16;99233.31;;;-1.28;81.70
18765;BME280;9511;54.242;12.448;2024-01-15T15:22:44;99234.06;;;-1.31;82.03
18765;BME280;9511;54.242;12.448;2024-01-15T15:25:12;99235.69;;;-1.33;81.90
18765;BME280;9511;54.242;12.448;2024-01-15T15:27:40;99252.13;;;-1.33;82.23
18765;BME280;9511;54.242;12.448;2024-01-15T15:30:08;99249.75;;;-1.28;83.06
18765;BME280;9511;54.242;12.448;2024-01-15T15:32:36;99257.59;;;-1.26;82.56
18765;BME280;9511;54.242;12.448;2024-01-15T15:35:04;99259.13;;;-1.31;82.94
18765;BME280;9511;54.242;12.448;2024-01-15T15:37:32;99257.25;;;-1.34;83.24
18765;BME280;9511;54.242;12.448;2024-01-15T15:40:00;99268.50;;;-1.34;83.15
18765;BME280;9511;54.242;12.448;2024-01-15T15:42:28;99273.63;;;-1.35;82.82
18765;BME280;9511;54.242;12.448;2024-01-15T15:44:56;99278.59;;;-1.40;82.84
18765;BME280;9511;54.242;12.448;2024-01-15T15:47:24;99285.25;;;-1.45;82.99
18765;BME280;9511;54.242;12.448;2024-01-15T15:49:51;99286.53;;;-1.54;82.01
18765;BME280;9511;54.242;12.448;2024-01-15T15:52:18;99288.88;;;-1.59;82.00
18765;BME280;9511;54.242;12.448;2024-01-15T15:54:45;99301.69;;;-1.62;81.70
18765;BME280;9511;54.242;12.448;2024-01-15T15:57:13;99305.03;;;-1.65;81.78
18765;BME280;9511;54.242;12.448;2024-01-15T15:59:40;99301.63;;;-1.64;82.05
18765;BME280;9511;54.242;12.448;2024-01-15T16:02:09;99292.22;;;-1.62;82.29
18765;BME280;9511;54.242;12.448;2024-01-15T16:04:36;99308.50;;;-1.64;82.03
18765;BME280;9511;54.242;12.448;2024-01-15T16:07:03;99307.56;;;-1.66;82.24
18765;BME280;9511;54.242;12.448;2024-01-15T16:09:35;99313.63;;;-1.66;82.21
18765;BME280;9511;54.242;12.448;2024-01-15T16:12:03;99320.34;;;-1.69;82.46
18765;BME280;9511;54.242;12.448;2024-01-15T16:14:31;99327.97;;;-1.72;82.79
18765;BME280;9511;54.242;12.448;2024-01-15T16:16:58;99326.34;;;-1.70;83.30
18765;BME280;9511;54.242;12.448;2024-01-15T16:19:27;99341.75;;;-1.73;83.07
18765;BME280;9511;54.242;12.448;2024-01-15T16:21:54;99345.38;;;-1.70;83.33
18765;BME280;9511;54.242;12.448;2024-01-15T16:24:22;99346.03;;;-1.74;82.11
18765;BME280;9511;54.242;12.448;2024-01-15T16:26:51;99349.38;;;-1.76;82.74
18765;BME280;9511;54.242;12.448;2024-01-15T16:29:18;99352.69;;;-1.79;82.85
18765;BME280;9511;54.242;12.448;2024-01-15T16:31:45;99350.84;;;-1.81;82.87
18765;BME280;9511;54.242;12.448;2024-01-15T16:34:13;99355.13;;;-1.82;82.13
18765;BME280;9511;54.242;12.448;2024-01-15T16:36:41;99364.44;;;-1.85;82.04
18765;BME280;9511;54.242;12.448;2024-01-15T16:39:09;99367.84;;;-1.87;81.21
18765;BME280;9511;54.242;12.448;2024-01-15T16:41:36;99370.44;;;-1.87;81.14
18765;BME280;9511;54.242;12.448;2024-01-15T16:44:03;99369.38;;;-1.90;80.80
18765;BME280;9511;54.242;12.448;2024-01-15T16:46:31;99369.31;;;-1.92;80.80
18765;BME280;9511;54.242;12.448;2024-01-15T16:48:58;99377.16;;;-1.90;80.74
18765;BME280;9511;54.242;12.448;2024-01-15T16:51:27;99378.03;;;-1.90;80.17
18765;BME280;9511;54.242;12.448;2024-01-15T16:53:57;99378.22;;;-1.87;80.54
18765;BME280;9511;54.242;12.448;2024-01-15T16:56:24;99387.13;;;-1.81;80.57
18765;BME280;9511;54.242;12.448;2024-01-15T16:58:51;99390.66;;;-1.79;80.41
18765;BME280;9511;54.242;12.448;2024-01-15T17:01:19;99396.69;;;-1.80;80.79
18765;BME280;9511;54.242;12.448;2024-01-15T17:03:46;99395.84;;;-1.79;80.89
18765;BME280;9511;54.242;12.448;2024-01-15T17:06:13;99405.59;;;-1.75;80.40
18765;BME280;9511;54.242;12.448;2024-01-15T17:08:41;99405.72;;;-1.72;80.40
18765;BME280;9511;54.242;12.448;2024-01-15T17:11:10;99416.25;;;-1.69;80.39
18765;BME280;9511;54.242;12.448;2024-01-15T17:13:38;99417.63;;;-1.59;81.61